sensor_id;sensor_type;location;lat;lon;timestamp;temperature;humidity
13682;DHT22;6913;49.892;7.936;2023-04-03T00:18:43;4.60;99.90
13682;DHT22;6913;49.892;7.936;2023-04-03T00:21:12;4.60;99.90
13682;DHT22;6913;49.892;7.936;2023-04-03T00:23:39;4.80;99.90
13682;DHT22;6913;49.892;7.936;2023-04-03T00:26:06;4.50;99.90
13682;DHT22;6913;49.892;7.936;2023-04-03T00:28:32;4.50;99.90
13682;DHT22;6913;49.892;7.936;2023-04-03T00:30:59;4.50;99.90
13682;DHT22;6913;49.892;7.936;2023-04-03T00:33:28;4.60;99.90
13682;DHT22;6913;49.892;7.936;2023-04-03T00:35:54;4.50;99.90
13682;DHT22;6913;49.892;7.936;2023-04-03T00:38:21;4.40;99.90
13682;DHT22;6913;49.892;7.936;2023-04-03T00:40:49;4.50;99.90
13682;DHT22;6913;49.892;7.936;2023-04-03T00:43:18;4.30;99.90
13682;DHT22;6913;49.892;7.936;2023-04-03T00:45:47;4.40;99.90
13682;DHT22;6913;49.892;7.936;2023-04-03T00:48:17;4.40;99.90
13682;DHT22;6913;49.892;7.936;2023-04-03T00:50:46;4.40;99.90
13682;DHT22;6913;49.892;7.936;2023-04-03T00:53:17;4.50;99.90
13682;DHT22;6913;49.892;7.936;2023-04-03T00:55:45;4.50;99.90
13682;DHT22;6913;49.892;7.936;2023-04-03T00:58:15;4.60;99.90
13682;DHT22;6913;49.892;7.936;2023-04-03T01:00:49;4.60;99.90
13682;DHT22;6913;49.892;7.936;2023-04-03T01:03:17;4.60;99.90
13682;DHT22;6913;49.892;7.936;2023-04-03T01:05:43;4.90;99.90
13682;DHT22;6913;49.892;7.936;2023-04-03T01:08:12;4.70;99.90
13682;DHT22;6913;49.892;7.936;2023-04-03T01:10:39;4.80;99.90
13682;DHT22;6913;49.892;7.936;2023-04-03T01:13:19;4.80;99.90
13682;DHT22;6913;49.892;7.936;2023-04-03T01:15:46;4.80;99.90
13682;DHT22;6913;49.892;7.936;2023-04-03T01:18:13;4.80;99.90
13682;DHT22;6913;49.892;7.936;2023-04-03T01:21:01;5.10;99.90
13682;DHT22;6913;49.892;7.936;2023-04-03T01:23:38;4.70;99.90
13682;DHT22;6913;49.892;7.936;2023-04-03T01:26:10;4.50;99.90
13682;DHT22;6913;49.892;7.936;2023-04-03T01:28:38;4.30;99.90
13682;DHT22;6913;49.892;7.936;2023-04-03T01:31:11;4.20;99.90
13682;DHT22;6913;49.892;7.936;2023-04-03T01:33:42;4.30;99.90
13682;DHT22;6913;49.892;7.936;2023-04-03T01:36:14;4.30;99.90
13682;DHT22;6913;49.892;7.936;2023-04-03T01:38:41;4.50;99.90
13682;DHT22;6913;49.892;7.936;2023-04-03T01:41:08;4.50;99.90
13682;DHT22;6913;49.892;7.936;2023-04-03T01:43:35;4.50;99.90
13682;DHT22;6913;49.892;7.936;2023-04-03T01:46:02;4.40;99.90
13682;DHT22;6913;49.892;7.936;2023-04-03T01:48:29;4.50;99.90
13682;DHT22;6913;49.892;7.936;2023-04-03T01:50:57;4.90;99.90
13682;DHT22;6913;49.892;7.936;2023-04-03T01:53:23;4.50;99.90
13682;DHT22;6913;49.892;7.936;2023-04-03T01:55:50;4.60;99.90
13682;DHT22;6913;49.892;7.936;2023-04-03T01:58:17;4.50;99.90
13682;DHT22;6913;49.892;7.936;2023-04-03T02:00:44;4.50;99.90
13682;DHT22;6913;49.892;7.936;2023-04-03T02:03:11;4.40;99.90
13682;DHT22;6913;49.892;7.936;2023-04-03T02:05:37;4.40;99.90
13682;DHT22;6913;49.892;7.936;2023-04-03T02:08:06;4.40;99.90
13682;DHT22;6913;49.892;7.936;2023-04-03T02:10:33;4.30;99.90
13682;DHT22;6913;49.892;7.936;2023-04-03T02:13:00;4.30;99.90
13682;DHT22;6913;49.892;7.936;2023-04-03T02:15:27;4.30;99.90
13682;DHT22;6913;49.892;7.936;2023-04-03T02:17:53;4.70;99.90
13682;DHT22;6913;49.892;7.936;2023-04-03T02:20:20;4.30;99.90
13682;DHT22;6913;49.892;7.936;2023-04-03T02:22:47;4.30;99.90
13682;DHT22;6913;49.892;7.936;2023-04-03T02:25:16;4.40;99.90
13682;DHT22;6913;49.892;7.936;2023-04-03T02:27:44;4.40;99.90
13682;DHT22;6913;49.892;7.936;2023-04-03T02:30:11;4.40;99.90
13682;DHT22;6913;49.892;7.936;2023-04-03T02:32:40;4.40;99.90
13682;DHT22;6913;49.892;7.936;2023-04-03T02:35:07;4.40;99.90
13682;DHT22;6913;49.892;7.936;2023-04-03T02:37:34;4.40;99.90
13682;DHT22;6913;49.892;7.936;2023-04-03T02:40:02;4.40;99.90
13682;DHT22;6913;49.892;7.936;2023-04-03T02:42:30;4.40;99.90
13682;DHT22;6913;49.892;7.936;2023-04-03T02:44:57;4.30;99.90
13682;DHT22;6913;49.892;7.936;2023-04-03T02:47:26;4.40;99.90
13682;DHT22;6913;49.892;7.936;2023-04-03T02:49:53;4.40;99.90
13682;DHT22;6913;49.892;7.936;2023-04-03T02:52:20;4.40;99.90
13682;DHT22;6913;49.892;7.936;2023-04-03T02:54:47;4.40;99.90
13682;DHT22;6913;49.892;7.936;2023-04-03T02:57:14;4.40;99.90
13682;DHT22;6913;49.892;7.936;2023-04-03T02:59:42;4.30;99.90
13682;DHT22;6913;49.892;7.936;2023-04-03T03:02:10;4.30;99.90
13682;DHT22;6913;49.892;7.936;2023-04-03T03:04:37;4.30;99.90
13682;DHT22;6913;49.892;7.936;2023-04-03T03:07:04;4.30;99.90
13682;DHT22;6913;49.892;7.936;2023-04-03T03:09:31;4.40;99.90
13682;DHT22;6913;49.892;7.936;2023-04-03T03:11:57;4.40;99.90
13682;DHT22;6913;49.892;7.936;2023-04-03T03:14:24;4.30;99.90
13682;DHT22;6913;49.892;7.936;2023-04-03T03:16:52;4.30;99.90
13682;DHT22;6913;49.892;7.936;2023-04-03T03:19:19;4.30;99.90
13682;DHT22;6913;49.892;7.936;2023-04-03T03:21:46;4.30;99.90
13682;DHT22;6913;49.892;7.936;2023-04-03T03:24:13;4.30;99.90
13682;DHT22;6913;49.892;7.936;2023-04-03T03:26:41;4.20;99.90
13682;DHT22;6913;49.892;7.936;2023-04-03T03:29:08;4.30;99.90
13682;DHT22;6913;49.892;7.936;2023-04-03T03:31:35;4.30;99.90
13682;DHT22;6913;49.892;7.936;2023-04-03T03:34:03;4.30;99.90
13682;DHT22;6913;49.892;7.936;2023-04-03T03:36:30;4.30;99.90
13682;DHT22;6913;49.892;7.936;2023-04-03T03:38:57;4.30;99.90
13682;DHT22;6913;49.892;7.936;2023-04-03T03:41:24;4.30;99.90
13682;DHT22;6913;49.892;7.936;2023-04-03T03:43:50;4.30;99.90
13682;DHT22;6913;49.892;7.936;2023-04-03T03:46:17;4.30;99.90
13682;DHT22;6913;49.892;7.936;2023-04-03T03:48:44;4.30;99.90
13682;DHT22;6913;49.892;7.936;2023-04-03T03:51:12;4.30;99.90
13682;DHT22;6913;49.892;7.936;2023-04-03T03:53:39;4.40;99.90
13682;DHT22;6913;49.892;7.936;2023-04-03T03:56:06;4.30;99.90
13682;DHT22;6913;49.892;7.936;2023-04-03T03:58:33;4.40;99.90
13682;DHT22;6913;49.892;7.936;2023-04-03T04:01:01;4.30;99.90
13682;DHT22;6913;49.892;7.936;2023-04-03T04:03:28;4.40;99.90
13682;DHT22;6913;49.892;7.936;2023-04-03T04:05:55;4.40;99.90
13682;DHT22;6913;49.892;7.936;2023-04-03T04:08:23;4.80;99.90
13682;DHT22;6913;49.892;7.936;2023-04-03T04:10:51;4.40;99.90
13682;DHT22;6913;49.892;7.936;2023-04-03T04:13:17;4.40;99.90
13682;DHT22;6913;49.892;7.936;2023-04-03T04:15:44;4.40;99.90
13682;DHT22;6913;49.892;7.936;2023-04-03T04:18:11;4.40;99.90
13682;DHT22;6913;49.892;7.936;2023-04-03T04:20:38;4.40;99.90
13682;DHT22;6913;49.892;7.936;2023-04-03T04:23:05;4.40;99.90
13682;DHT22;6913;49.892;7.936;2023-04-03T04:25:33;4.30;99.90
13682;DHT22;6913;49.892;7.936;2023-04-03T04:28:00;4.30;99.90
13682;DHT22;6913;49.892;7.936;2023-04-03T04:30:26;4.30;99.90
13682;DHT22;6913;49.892;7.936;2023-04-03T04:32:53;4.30;99.90
13682;DHT22;6913;49.892;7.936;2023-04-03T04:35:20;4.20;99.90
13682;DHT22;6913;49.892;7.936;2023-04-03T04:37:47;4.20;99.90
13682;DHT22;6913;49.892;7.936;2023-04-03T04:40:14;4.10;99.90
13682;DHT22;6913;49.892;7.936;2023-04-03T04:42:42;4.00;99.90
13682;DHT22;6913;49.892;7.936;2023-04-03T04:45:10;4.10;99.90
13682;DHT22;6913;49.892;7.936;2023-04-03T04:47:36;4.10;99.90
13682;DHT22;6913;49.892;7.936;2023-04-03T04:50:04;4.10;99.90
13682;DHT22;6913;49.892;7.936;2023-04-03T04:52:31;4.10;99.90
13682;DHT22;6913;49.892;7.936;2023-04-03T04:54:58;4.40;99.90
13682;DHT22;6913;49.892;7.936;2023-04-03T04:57:25;4.00;99.90
13682;DHT22;6913;49.892;7.936;2023-04-03T04:59:53;4.00;99.90
13682;DHT22;6913;49.892;7.936;2023-04-03T05:02:20;4.00;99.90
13682;DHT22;6913;49.892;7.936;2023-04-03T05:04:47;3.90;99.90
13682;DHT22;6913;49.892;7.936;2023-04-03T05:07:15;3.90;99.90
13682;DHT22;6913;49.892;7.936;2023-04-03T05:09:42;3.80;99.90
13682;DHT22;6913;49.892;7.936;2023-04-03T05:12:09;3.80;99.90
13682;DHT22;6913;49.892;7.936;2023-04-03T05:14:36;3.80;99.90
13682;DHT22;6913;49.892;7.936;2023-04-03T05:17:04;3.70;99.90
13682;DHT22;6913;49.892;7.936;2023-04-03T05:19:30;4.10;99.90
13682;DHT22;6913;49.892;7.936;2023-04-03T05:24:24;3.90;96.90
13682;DHT22;6913;49.892;7.936;2023-04-03T05:26:51;3.80;99.90
13682;DHT22;6913;49.892;7.936;2023-04-03T05:29:18;3.80;98.40
13682;DHT22;6913;49.892;7.936;2023-04-03T05:31:45;3.70;99.90
13682;DHT22;6913;49.892;7.936;2023-04-03T05:34:13;3.70;99.90
13682;DHT22;6913;49.892;7.936;2023-04-03T05:36:40;3.60;98.90
13682;DHT22;6913;49.892;7.936;2023-04-03T05:39:07;3.60;99.90
13682;DHT22;6913;49.892;7.936;2023-04-03T05:41:34;3.60;99.90
13682;DHT22;6913;49.892;7.936;2023-04-03T05:44:01;3.60;99.90
13682;DHT22;6913;49.892;7.936;2023-04-03T05:46:28;3.60;99.90
13682;DHT22;6913;49.892;7.936;2023-04-03T05:48:55;3.60;99.90
13682;DHT22;6913;49.892;7.936;2023-04-03T05:51:25;3.60;99.90
13682;DHT22;6913;49.892;7.936;2023-04-03T05:53:55;3.60;99.90
13682;DHT22;6913;49.892;7.936;2023-04-03T05:56:23;3.70;99.10
13682;DHT22;6913;49.892;7.936;2023-04-03T05:58:51;4.70;97.80
13682;DHT22;6913;49.892;7.936;2023-04-03T06:01:17;4.00;99.90
13682;DHT22;6913;49.892;7.936;2023-04-03T06:03:44;3.70;99.90
13682;DHT22;6913;49.892;7.936;2023-04-03T06:06:13;3.70;95.70
13682;DHT22;6913;49.892;7.936;2023-04-03T06:08:41;3.80;97.20
13682;DHT22;6913;49.892;7.936;2023-04-03T06:11:09;3.80;96.50
13682;DHT22;6913;49.892;7.936;2023-04-03T06:13:36;4.20;94.00
13682;DHT22;6913;49.892;7.936;2023-04-03T06:16:05;4.00;97.10
13682;DHT22;6913;49.892;7.936;2023-04-03T06:18:32;4.30;72.80
13682;DHT22;6913;49.892;7.936;2023-04-03T06:21:00;4.80;64.10
13682;DHT22;6913;49.892;7.936;2023-04-03T06:23:28;5.00;51.90
13682;DHT22;6913;49.892;7.936;2023-04-03T06:25:57;4.80;43.60
13682;DHT22;6913;49.892;7.936;2023-04-03T06:28:24;5.10;49.20
13682;DHT22;6913;49.892;7.936;2023-04-03T06:30:51;4.80;47.20
13682;DHT22;6913;49.892;7.936;2023-04-03T06:33:18;5.40;56.40
13682;DHT22;6913;49.892;7.936;2023-04-03T06:35:46;4.40;48.80
13682;DHT22;6913;49.892;7.936;2023-04-03T06:38:13;5.90;48.10
13682;DHT22;6913;49.892;7.936;2023-04-03T06:40:40;5.10;66.00
13682;DHT22;6913;49.892;7.936;2023-04-03T06:43:09;5.50;31.20
13682;DHT22;6913;49.892;7.936;2023-04-03T06:45:36;5.60;46.80
13682;DHT22;6913;49.892;7.936;2023-04-03T06:48:03;4.10;17.90
13682;DHT22;6913;49.892;7.936;2023-04-03T06:50:31;5.60;37.70
13682;DHT22;6913;49.892;7.936;2023-04-03T06:52:57;6.60;14.40
13682;DHT22;6913;49.892;7.936;2023-04-03T06:55:24;5.30;22.70
13682;DHT22;6913;49.892;7.936;2023-04-03T06:57:51;5.60;32.50
13682;DHT22;6913;49.892;7.936;2023-04-03T07:00:20;5.10;26.60
13682;DHT22;6913;49.892;7.936;2023-04-03T07:02:47;5.10;39.80
13682;DHT22;6913;49.892;7.936;2023-04-03T07:05:14;5.70;39.40
13682;DHT22;6913;49.892;7.936;2023-04-03T07:07:41;5.30;40.30
13682;DHT22;6913;49.892;7.936;2023-04-03T07:10:08;5.30;24.60
13682;DHT22;6913;49.892;7.936;2023-04-03T07:12:36;5.20;40.10
13682;DHT22;6913;49.892;7.936;2023-04-03T07:15:04;5.40;28.80
13682;DHT22;6913;49.892;7.936;2023-04-03T07:17:32;5.60;32.10
13682;DHT22;6913;49.892;7.936;2023-04-03T07:19:59;5.60;40.80
13682;DHT22;6913;49.892;7.936;2023-04-03T07:22:26;5.50;36.20
13682;DHT22;6913;49.892;7.936;2023-04-03T07:24:53;5.70;55.40
13682;DHT22;6913;49.892;7.936;2023-04-03T07:27:20;6.20;31.10
13682;DHT22;6913;49.892;7.936;2023-04-03T07:29:47;5.20;31.20
13682;DHT22;6913;49.892;7.936;2023-04-03T07:32:15;5.10;38.20
13682;DHT22;6913;49.892;7.936;2023-04-03T07:34:44;5.10;28.90
13682;DHT22;6913;49.892;7.936;2023-04-03T07:37:11;5.30;24.40
13682;DHT22;6913;49.892;7.936;2023-04-03T07:39:38;5.50;11.10
13682;DHT22;6913;49.892;7.936;2023-04-03T07:42:05;5.70;1.00
13682;DHT22;6913;49.892;7.936;2023-04-03T07:44:32;5.70;1.00
13682;DHT22;6913;49.892;7.936;2023-04-03T07:46:59;5.80;1.00
13682;DHT22;6913;49.892;7.936;2023-04-03T07:49:26;5.90;1.00
13682;DHT22;6913;49.892;7.936;2023-04-03T07:51:55;6.20;1.00
13682;DHT22;6913;49.892;7.936;2023-04-03T07:54:22;5.80;1.00
13682;DHT22;6913;49.892;7.936;2023-04-03T07:56:48;6.10;1.00
13682;DHT22;6913;49.892;7.936;2023-04-03T07:59:15;6.20;1.00
13682;DHT22;6913;49.892;7.936;2023-04-03T08:01:42;6.10;1.00
13682;DHT22;6913;49.892;7.936;2023-04-03T08:04:09;6.00;1.00
13682;DHT22;6913;49.892;7.936;2023-04-03T08:06:36;6.00;1.00
13682;DHT22;6913;49.892;7.936;2023-04-03T08:09:04;6.30;1.00
13682;DHT22;6913;49.892;7.936;2023-04-03T08:11:31;6.40;1.00
13682;DHT22;6913;49.892;7.936;2023-04-03T08:13:58;6.10;1.00
13682;DHT22;6913;49.892;7.936;2023-04-03T08:16:25;6.20;1.00
13682;DHT22;6913;49.892;7.936;2023-04-03T08:18:53;6.40;1.00
13682;DHT22;6913;49.892;7.936;2023-04-03T08:21:20;6.10;1.00
13682;DHT22;6913;49.892;7.936;2023-04-03T08:23:48;6.00;1.00
13682;DHT22;6913;49.892;7.936;2023-04-03T08:26:19;6.10;1.00
13682;DHT22;6913;49.892;7.936;2023-04-03T08:28:47;6.30;1.00
13682;DHT22;6913;49.892;7.936;2023-04-03T08:31:16;6.50;1.00
13682;DHT22;6913;49.892;7.936;2023-04-03T08:33:44;6.60;1.00
13682;DHT22;6913;49.892;7.936;2023-04-03T08:36:21;7.40;1.00
13682;DHT22;6913;49.892;7.936;2023-04-03T08:38:49;6.60;1.00
13682;DHT22;6913;49.892;7.936;2023-04-03T08:41:25;6.60;1.00
13682;DHT22;6913;49.892;7.936;2023-04-03T08:44:09;7.70;1.00
13682;DHT22;6913;49.892;7.936;2023-04-03T08:46:50;6.40;1.00
13682;DHT22;6913;49.892;7.936;2023-04-03T08:49:24;6.30;1.00
13682;DHT22;6913;49.892;7.936;2023-04-03T08:51:53;6.70;1.00
13682;DHT22;6913;49.892;7.936;2023-04-03T08:54:26;6.60;1.00
13682;DHT22;6913;49.892;7.936;2023-04-03T08:56:56;6.70;1.00
13682;DHT22;6913;49.892;7.936;2023-04-03T08:59:27;6.70;1.00
13682;DHT22;6913;49.892;7.936;2023-04-03T09:01:56;7.30;1.00
13682;DHT22;6913;49.892;7.936;2023-04-03T09:04:26;7.30;1.00
13682;DHT22;6913;49.892;7.936;2023-04-03T09:06:57;6.80;1.00
13682;DHT22;6913;49.892;7.936;2023-04-03T09:09:31;6.90;1.00
13682;DHT22;6913;49.892;7.936;2023-04-03T09:12:06;6.60;1.00
13682;DHT22;6913;49.892;7.936;2023-04-03T09:14:40;7.10;1.00
13682;DHT22;6913;49.892;7.936;2023-04-03T09:17:14;7.50;1.00
13682;DHT22;6913;49.892;7.936;2023-04-03T09:19:49;7.40;1.00
13682;DHT22;6913;49.892;7.936;2023-04-03T09:22:20;7.50;1.00
13682;DHT22;6913;49.892;7.936;2023-04-03T09:24:53;7.00;1.00
13682;DHT22;6913;49.892;7.936;2023-04-03T09:27:23;6.90;1.00
13682;DHT22;6913;49.892;7.936;2023-04-03T09:29:53;7.10;1.00
13682;DHT22;6913;49.892;7.936;2023-04-03T09:32:27;7.10;12.70
13682;DHT22;6913;49.892;7.936;2023-04-03T09:34:56;6.50;99.90
13682;DHT22;6913;49.892;7.936;2023-04-03T09:37:39;6.40;99.90
13682;DHT22;6913;49.892;7.936;2023-04-03T09:40:29;7.10;1.00
13682;DHT22;6913;49.892;7.936;2023-04-03T09:42:59;7.20;1.00
13682;DHT22;6913;49.892;7.936;2023-04-03T09:45:28;6.90;1.00
13682;DHT22;6913;49.892;7.936;2023-04-03T09:48:07;6.90;1.00
13682;DHT22;6913;49.892;7.936;2023-04-03T09:50:36;7.50;1.00
13682;DHT22;6913;49.892;7.936;2023-04-03T09:53:07;7.70;99.90
13682;DHT22;6913;49.892;7.936;2023-04-03T09:55:51;7.20;1.00
13682;DHT22;6913;49.892;7.936;2023-04-03T09:58:27;7.30;1.00
13682;DHT22;6913;49.892;7.936;2023-04-03T10:00:56;7.20;1.00
13682;DHT22;6913;49.892;7.936;2023-04-03T10:03:27;7.40;99.90
13682;DHT22;6913;49.892;7.936;2023-04-03T10:05:54;7.70;1.00
13682;DHT22;6913;49.892;7.936;2023-04-03T10:08:25;7.00;1.00
13682;DHT22;6913;49.892;7.936;2023-04-03T10:11:10;7.00;1.00
13682;DHT22;6913;49.892;7.936;2023-04-03T10:13:51;7.80;1.00
13682;DHT22;6913;49.892;7.936;2023-04-03T10:16:22;7.10;99.90
13682;DHT22;6913;49.892;7.936;2023-04-03T10:18:59;7.40;1.00
13682;DHT22;6913;49.892;7.936;2023-04-03T10:21:35;7.60;99.90
13682;DHT22;6913;49.892;7.936;2023-04-03T10:24:11;7.30;99.90
13682;DHT22;6913;49.892;7.936;2023-04-03T10:26:45;7.10;99.90
13682;DHT22;6913;49.892;7.936;2023-04-03T10:29:28;7.40;1.00
13682;DHT22;6913;49.892;7.936;2023-04-03T10:32:07;7.50;99.90
13682;DHT22;6913;49.892;7.936;2023-04-03T10:34:40;7.50;99.90
13682;DHT22;6913;49.892;7.936;2023-04-03T10:37:17;6.90;9.30
13682;DHT22;6913;49.892;7.936;2023-04-03T10:39:52;7.00;1.00
13682;DHT22;6913;49.892;7.936;2023-04-03T10:42:26;7.80;99.90
13682;DHT22;6913;49.892;7.936;2023-04-03T10:45:05;7.80;1.00
13682;DHT22;6913;49.892;7.936;2023-04-03T10:47:40;8.50;1.00
13682;DHT22;6913;49.892;7.936;2023-04-03T10:53:16;6.90;1.00
13682;DHT22;6913;49.892;7.936;2023-04-03T10:55:51;7.20;99.90
13682;DHT22;6913;49.892;7.936;2023-04-03T10:58:24;7.30;1.00
13682;DHT22;6913;49.892;7.936;2023-04-03T11:00:55;7.70;1.00
13682;DHT22;6913;49.892;7.936;2023-04-03T11:03:29;7.60;99.90
13682;DHT22;6913;49.892;7.936;2023-04-03T11:05:59;8.20;1.00
13682;DHT22;6913;49.892;7.936;2023-04-03T11:08:31;6.70;99.90
13682;DHT22;6913;49.892;7.936;2023-04-03T11:11:01;7.30;1.00
13682;DHT22;6913;49.892;7.936;2023-04-03T11:13:34;7.40;99.90
13682;DHT22;6913;49.892;7.936;2023-04-03T11:16:04;7.60;1.00
13682;DHT22;6913;49.892;7.936;2023-04-03T11:18:37;7.80;99.90
13682;DHT22;6913;49.892;7.936;2023-04-03T11:21:09;7.50;1.00
13682;DHT22;6913;49.892;7.936;2023-04-03T11:23:39;7.50;1.00
13682;DHT22;6913;49.892;7.936;2023-04-03T11:26:09;7.50;1.00
13682;DHT22;6913;49.892;7.936;2023-04-03T11:28:37;7.60;99.90
13682;DHT22;6913;49.892;7.936;2023-04-03T11:31:14;8.10;1.00
13682;DHT22;6913;49.892;7.936;2023-04-03T11:33:51;8.60;1.00
13682;DHT22;6913;49.892;7.936;2023-04-03T11:36:22;8.70;99.90
13682;DHT22;6913;49.892;7.936;2023-04-03T11:38:52;7.50;1.00
13682;DHT22;6913;49.892;7.936;2023-04-03T11:41:26;8.50;1.00
13682;DHT22;6913;49.892;7.936;2023-04-03T11:43:59;8.50;1.00
13682;DHT22;6913;49.892;7.936;2023-04-03T11:46:50;7.60;99.90
13682;DHT22;6913;49.892;7.936;2023-04-03T11:52:56;8.00;1.00
13682;DHT22;6913;49.892;7.936;2023-04-03T11:55:57;8.70;90.30
13682;DHT22;6913;49.892;7.936;2023-04-03T11:58:25;7.80;1.00
13682;DHT22;6913;49.892;7.936;2023-04-03T12:01:00;7.50;99.90
13682;DHT22;6913;49.892;7.936;2023-04-03T12:07:00;7.60;1.00
13682;DHT22;6913;49.892;7.936;2023-04-03T12:12:34;7.90;1.00
13682;DHT22;6913;49.892;7.936;2023-04-03T12:18:43;8.20;99.90
13682;DHT22;6913;49.892;7.936;2023-04-03T12:21:11;8.30;99.90
13682;DHT22;6913;49.892;7.936;2023-04-03T12:24:02;8.70;99.90
13682;DHT22;6913;49.892;7.936;2023-04-03T12:26:38;8.40;1.00
13682;DHT22;6913;49.892;7.936;2023-04-03T12:29:15;8.00;99.90
13682;DHT22;6913;49.892;7.936;2023-04-03T12:31:52;7.70;1.00
13682;DHT22;6913;49.892;7.936;2023-04-03T12:34:33;7.30;99.90
13682;DHT22;6913;49.892;7.936;2023-04-03T12:37:15;7.20;8.70
13682;DHT22;6913;49.892;7.936;2023-04-03T12:39:58;7.40;94.10
13682;DHT22;6913;49.892;7.936;2023-04-03T12:42:41;8.30;1.00
13682;DHT22;6913;49.892;7.936;2023-04-03T12:45:16;9.10;1.00
13682;DHT22;6913;49.892;7.936;2023-04-03T12:47:45;8.90;99.90
13682;DHT22;6913;49.892;7.936;2023-04-03T12:50:21;8.80;1.00
13682;DHT22;6913;49.892;7.936;2023-04-03T12:52:54;8.30;1.00
13682;DHT22;6913;49.892;7.936;2023-04-03T12:55:24;8.10;1.00
13682;DHT22;6913;49.892;7.936;2023-04-03T12:57:51;8.90;1.00
13682;DHT22;6913;49.892;7.936;2023-04-03T13:00:33;8.90;1.00
13682;DHT22;6913;49.892;7.936;2023-04-03T13:03:01;8.70;1.00
13682;DHT22;6913;49.892;7.936;2023-04-03T13:05:30;8.80;1.00
13682;DHT22;6913;49.892;7.936;2023-04-03T13:08:00;8.80;86.00
13682;DHT22;6913;49.892;7.936;2023-04-03T13:10:30;8.00;69.50
13682;DHT22;6913;49.892;7.936;2023-04-03T13:13:06;8.00;1.00
13682;DHT22;6913;49.892;7.936;2023-04-03T13:15:41;8.40;1.00
13682;DHT22;6913;49.892;7.936;2023-04-03T13:18:22;8.80;1.00
13682;DHT22;6913;49.892;7.936;2023-04-03T13:20:50;9.50;99.90
13682;DHT22;6913;49.892;7.936;2023-04-03T13:23:17;9.10;99.90
13682;DHT22;6913;49.892;7.936;2023-04-03T13:25:48;9.00;98.50
13682;DHT22;6913;49.892;7.936;2023-04-03T13:28:20;9.10;98.60
13682;DHT22;6913;49.892;7.936;2023-04-03T13:30:56;9.90;97.70
13682;DHT22;6913;49.892;7.936;2023-04-03T13:33:28;10.40;95.70
13682;DHT22;6913;49.892;7.936;2023-04-03T13:35:58;8.50;95.90
13682;DHT22;6913;49.892;7.936;2023-04-03T13:38:29;8.50;98.20
13682;DHT22;6913;49.892;7.936;2023-04-03T13:41:02;8.70;99.30
13682;DHT22;6913;49.892;7.936;2023-04-03T13:43:31;8.80;95.20
13682;DHT22;6913;49.892;7.936;2023-04-03T13:46:05;9.40;97.70
13682;DHT22;6913;49.892;7.936;2023-04-03T13:48:49;9.50;95.80
13682;DHT22;6913;49.892;7.936;2023-04-03T13:51:22;9.10;96.50
13682;DHT22;6913;49.892;7.936;2023-04-03T13:53:51;8.80;95.70
13682;DHT22;6913;49.892;7.936;2023-04-03T13:56:24;9.10;97.20
13682;DHT22;6913;49.892;7.936;2023-04-03T13:59:02;9.10;99.90
13682;DHT22;6913;49.892;7.936;2023-04-03T14:01:41;9.10;97.60
13682;DHT22;6913;49.892;7.936;2023-04-03T14:04:14;8.80;97.20
13682;DHT22;6913;49.892;7.936;2023-04-03T14:06:42;8.20;96.70
13682;DHT22;6913;49.892;7.936;2023-04-03T14:09:09;8.80;97.40
13682;DHT22;6913;49.892;7.936;2023-04-03T14:11:37;8.60;96.80
13682;DHT22;6913;49.892;7.936;2023-04-03T14:14:11;8.70;95.90
13682;DHT22;6913;49.892;7.936;2023-04-03T14:16:41;9.50;97.20
13682;DHT22;6913;49.892;7.936;2023-04-03T14:19:17;9.50;97.20
13682;DHT22;6913;49.892;7.936;2023-04-03T14:21:44;8.70;96.00
13682;DHT22;6913;49.892;7.936;2023-04-03T14:24:11;8.60;95.70
13682;DHT22;6913;49.892;7.936;2023-04-03T14:26:39;9.10;96.40
13682;DHT22;6913;49.892;7.936;2023-04-03T14:29:06;8.80;96.10
13682;DHT22;6913;49.892;7.936;2023-04-03T14:31:33;8.70;98.20
13682;DHT22;6913;49.892;7.936;2023-04-03T14:34:00;9.10;93.60
13682;DHT22;6913;49.892;7.936;2023-04-03T14:36:29;8.90;97.90
13682;DHT22;6913;49.892;7.936;2023-04-03T14:38:57;9.00;97.10
13682;DHT22;6913;49.892;7.936;2023-04-03T14:41:25;8.80;95.40
13682;DHT22;6913;49.892;7.936;2023-04-03T14:43:54;8.70;92.80
13682;DHT22;6913;49.892;7.936;2023-04-03T14:46:26;8.90;96.40
13682;DHT22;6913;49.892;7.936;2023-04-03T14:48:53;8.80;96.70
13682;DHT22;6913;49.892;7.936;2023-04-03T14:51:20;8.50;94.10
13682;DHT22;6913;49.892;7.936;2023-04-03T14:53:47;8.50;93.40
13682;DHT22;6913;49.892;7.936;2023-04-03T14:56:18;8.50;92.60
13682;DHT22;6913;49.892;7.936;2023-04-03T14:58:47;8.40;93.00
13682;DHT22;6913;49.892;7.936;2023-04-03T15:01:17;8.50;94.40
13682;DHT22;6913;49.892;7.936;2023-04-03T15:03:44;8.30;95.10
13682;DHT22;6913;49.892;7.936;2023-04-03T15:06:12;8.40;95.00
13682;DHT22;6913;49.892;7.936;2023-04-03T15:08:39;8.50;92.90
13682;DHT22;6913;49.892;7.936;2023-04-03T15:11:07;8.50;94.10
13682;DHT22;6913;49.892;7.936;2023-04-03T15:13:34;8.50;96.30
13682;DHT22;6913;49.892;7.936;2023-04-03T15:16:01;8.40;95.80
13682;DHT22;6913;49.892;7.936;2023-04-03T15:18:34;8.20;93.30
13682;DHT22;6913;49.892;7.936;2023-04-03T15:21:03;8.40;96.00
13682;DHT22;6913;49.892;7.936;2023-04-03T15:23:30;8.50;94.40
13682;DHT22;6913;49.892;7.936;2023-04-03T15:25:57;8.50;99.00
13682;DHT22;6913;49.892;7.936;2023-04-03T15:28:28;8.40;94.00
13682;DHT22;6913;49.892;7.936;2023-04-03T15:30:59;8.40;92.80
13682;DHT22;6913;49.892;7.936;2023-04-03T15:33:26;7.70;93.10
13682;DHT22;6913;49.892;7.936;2023-04-03T15:35:55;8.00;95.30
13682;DHT22;6913;49.892;7.936;2023-04-03T15:38:22;8.40;92.40
13682;DHT22;6913;49.892;7.936;2023-04-03T15:40:49;9.30;93.90
13682;DHT22;6913;49.892;7.936;2023-04-03T15:43:16;8.50;92.20
13682;DHT22;6913;49.892;7.936;2023-04-03T15:45:44;8.20;92.40
13682;DHT22;6913;49.892;7.936;2023-04-03T15:48:12;8.10;93.30
13682;DHT22;6913;49.892;7.936;2023-04-03T15:50:39;8.30;94.20
13682;DHT22;6913;49.892;7.936;2023-04-03T15:53:08;8.30;95.20
13682;DHT22;6913;49.892;7.936;2023-04-03T15:55:37;8.40;95.70
13682;DHT22;6913;49.892;7.936;2023-04-03T15:58:04;8.00;93.50
13682;DHT22;6913;49.892;7.936;2023-04-03T16:00:32;7.80;94.20
13682;DHT22;6913;49.892;7.936;2023-04-03T16:03:00;7.90;93.80
13682;DHT22;6913;49.892;7.936;2023-04-03T16:05:30;7.90;94.00
13682;DHT22;6913;49.892;7.936;2023-04-03T16:07:58;8.30;94.00
13682;DHT22;6913;49.892;7.936;2023-04-03T16:10:27;8.80;95.20
13682;DHT22;6913;49.892;7.936;2023-04-03T16:12:54;8.10;94.60
13682;DHT22;6913;49.892;7.936;2023-04-03T16:15:21;8.00;93.10
13682;DHT22;6913;49.892;7.936;2023-04-03T16:17:49;7.80;92.70
13682;DHT22;6913;49.892;7.936;2023-04-03T16:20:16;7.80;94.70
13682;DHT22;6913;49.892;7.936;2023-04-03T16:22:44;7.80;93.80
13682;DHT22;6913;49.892;7.936;2023-04-03T16:25:11;7.70;96.20
13682;DHT22;6913;49.892;7.936;2023-04-03T16:27:39;7.80;96.80
13682;DHT22;6913;49.892;7.936;2023-04-03T16:30:08;7.70;95.10
13682;DHT22;6913;49.892;7.936;2023-04-03T16:32:35;7.70;94.40
13682;DHT22;6913;49.892;7.936;2023-04-03T16:35:04;7.80;92.50
13682;DHT22;6913;49.892;7.936;2023-04-03T16:37:31;7.40;93.30
13682;DHT22;6913;49.892;7.936;2023-04-03T16:39:59;7.80;93.80
13682;DHT22;6913;49.892;7.936;2023-04-03T16:42:26;8.00;95.70
13682;DHT22;6913;49.892;7.936;2023-04-03T16:44:57;8.10;95.10
13682;DHT22;6913;49.892;7.936;2023-04-03T16:47:25;7.60;94.20
13682;DHT22;6913;49.892;7.936;2023-04-03T16:49:52;7.50;94.40
13682;DHT22;6913;49.892;7.936;2023-04-03T16:52:19;7.70;94.30
13682;DHT22;6913;49.892;7.936;2023-04-03T16:54:46;8.10;94.60
13682;DHT22;6913;49.892;7.936;2023-04-03T16:57:13;7.30;93.70